Etusivu
METAR-TAF:

METAR-TAF

Lentoasemat :

Carroll, Iowa, Yhdysvallat

Leveyspiiri: 42-03N, Pituuspiiri: 094-47W, korkeus merenpinnasta: 375 m

Tämänhetkinen sää

Tämä raportti tehtiin 5 minuuttia sitten, kello 16.35 UTC
Tuuli 17 kn koillisesta puuskistuen 22 kn:hen
Lämpötila -1°C
Kosteus 93%
Ilmanpaine 1027 hPa
Näkyvyys: 16.1 km
Hajonneita pilviä 1500 ft:n korkeudessa

METAR: KCIN 011635Z AUTO 04017G22KT 10SM BKN015 M01/M02 A3032 RMK AO2

Aika: 10:40 (16:40 UTC)


TAF: puuttuu

Säähavainnot ja -ennusteet yli 4000 lentoasemalta (METAR- ja TAF-raportit).

Käytössä olevat sääasemat on merkitty karttaan keltaisilla ja punaisilla pisteillä.

Aseta hiiri pisteen päälle nähdäksesi sääaseman nimen.

Klikkaa sitten nähdäksesi säähavainnot ja -ennusteet.

Kartan vaihtaminen: klikkaa mustalla rastilla varustettuja vihreitä pisteitä, niin voit zoomata sisään; viivalla varustettua vihreää pistettä, niin voit zoomata ulos tai vihreitä nuolia, niin pääset viereisille kartoille.


METAR-TAF: